Time;durP1;ratioP1;P1;durP2;ratioP2;P2;SDS_P1;SDS_P2;PMS_P1;PMS_P2;Temp;Humidity;BMP_temperature;BMP_pressure;BME280_temperature;BME280_humidity;BME280_pressure;Samples;Min_cycle;Max_cycle;Signal;HPM_P1;HPM_P2
2022/09/15 00:00:10;;;;;;;7.82;2.75;;;12.60;99.90;;;;;;6118017;23;20048;-85
2022/09/15 00:02:36;;;;;;;5.45;2.60;;;12.60;99.90;;;;;;6115673;23;20006;-85
2022/09/15 00:05:02;;;;;;;12.18;3.00;;;12.60;99.90;;;;;;6119258;23;20085;-83
2022/09/15 00:07:27;;;;;;;16.58;3.08;;;12.60;99.90;;;;;;6117483;23;20010;-86
2022/09/15 00:09:53;;;;;;;5.43;2.40;;;12.60;99.90;;;;;;6116976;23;20034;-85
2022/09/15 00:12:18;;;;;;;9.25;2.50;;;12.60;99.90;;;;;;6117700;23;19998;-85
2022/09/15 00:14:44;;;;;;;8.32;2.50;;;12.60;99.90;;;;;;6117999;23;20073;-84
2022/09/15 00:17:10;;;;;;;9.77;2.60;;;12.60;99.90;;;;;;6117803;23;20028;-84
2022/09/15 00:19:35;;;;;;;8.75;2.47;;;12.60;99.90;;;;;;6116105;23;20278;-86
2022/09/15 00:22:01;;;;;;;9.38;3.10;;;12.60;99.90;;;;;;6118047;23;20411;-86
2022/09/15 00:24:26;;;;;;;19.75;3.20;;;12.60;99.90;;;;;;6115364;23;20408;-85
2022/09/15 00:26:52;;;;;;;8.32;2.55;;;12.50;99.90;;;;;;6116887;23;19998;-86
2022/09/15 00:29:18;;;;;;;14.30;3.25;;;12.50;99.90;;;;;;6118146;23;20005;-86
2022/09/15 00:31:43;;;;;;;8.93;2.92;;;12.60;99.90;;;;;;6116827;23;20083;-86
2022/09/15 00:34:15;;;;;;;14.80;3.78;;;12.60;99.90;;;;;;6116647;23;20001;-87
2022/09/15 00:36:40;;;;;;;12.30;2.95;;;12.70;99.90;;;;;;6115599;23;20423;-86
2022/09/15 00:39:06;;;;;;;12.23;3.45;;;12.70;99.90;;;;;;6118333;23;20020;-86
2022/09/15 00:41:32;;;;;;;12.57;2.60;;;12.70;99.90;;;;;;6090819;23;20010;-86
2022/09/15 00:43:59;;;;;;;24.98;3.35;;;12.70;99.90;;;;;;6117663;23;20049;-86
2022/09/15 00:46:35;;;;;;;25.88;5.38;;;12.70;99.90;;;;;;6117117;23;20443;-87
2022/09/15 00:49:10;;;;;;;18.48;3.72;;;12.70;99.90;;;;;;6117327;23;20005;-87
2022/09/15 00:51:54;;;;;;;19.58;3.78;;;12.70;99.90;;;;;;6115290;23;20013;-86
2022/09/15 00:54:29;;;;;;;11.35;3.67;;;12.80;99.90;;;;;;6117153;23;20013;-87
2022/09/15 00:56:57;;;;;;;10.63;3.00;;;12.70;99.90;;;;;;6117043;23;20085;-87
2022/09/15 00:59:27;;;;;;;13.02;3.00;;;12.70;99.90;;;;;;6116646;23;20084;-86
2022/09/15 01:02:01;;;;;;;15.60;2.85;;;12.60;99.90;;;;;;6118044;23;19998;-87
2022/09/15 01:04:27;;;;;;;14.65;4.70;;;12.60;99.90;;;;;;6116842;23;20002;-87
2022/09/15 01:06:59;;;;;;;14.77;4.30;;;12.50;99.90;;;;;;6116687;23;20009;-87
2022/09/15 01:09:36;;;;;;;15.90;4.88;;;12.50;99.90;;;;;;6115518;23;20076;-86
2022/09/15 01:12:03;;;;;;;17.02;4.28;;;12.50;99.90;;;;;;6091597;23;20002;-87
2022/09/15 01:14:28;;;;;;;14.02;4.63;;;12.50;99.90;;;;;;6116836;23;20006;-87
2022/09/15 01:17:11;;;;;;;20.02;5.13;;;12.50;99.90;;;;;;6116992;23;20462;-87
2022/09/15 01:20:05;;;;;;;15.32;4.72;;;12.50;99.90;;;;;;6117942;23;20017;-86
2022/09/15 01:23:05;;;;;;;11.07;4.18;;;12.40;99.90;;;;;;6115628;23;20067;-87
2022/09/15 01:25:40;;;;;;;11.85;3.38;;;12.40;99.90;;;;;;6117252;23;20083;-83
2022/09/15 01:28:25;;;;;;;20.05;4.45;;;12.30;99.90;;;;;;6117446;23;20002;-87
2022/09/15 01:31:01;;;;;;;13.13;3.45;;;12.20;99.90;;;;;;6115501;23;20070;-86
2022/09/15 01:33:43;;;;;;;9.10;3.20;;;12.20;99.90;;;;;;6118188;23;20325;-86
2022/09/15 01:36:20;;;;;;;7.50;3.13;;;12.20;99.90;;;;;;6115776;23;20030;-85
2022/09/15 01:38:54;;;;;;;7.65;2.97;;;12.10;99.90;;;;;;6117382;23;20006;-88
2022/09/15 01:41:46;;;;;;;10.93;3.25;;;12.10;99.90;;;;;;6116403;23;20017;-86
2022/09/15 01:44:21;;;;;;;15.07;3.92;;;12.10;99.90;;;;;;6117629;23;20010;-87
2022/09/15 01:46:51;;;;;;;9.88;3.17;;;12.10;99.90;;;;;;6116008;23;20010;-86
2022/09/15 01:49:34;;;;;;;11.40;3.72;;;12.00;99.90;;;;;;6117415;23;20319;-88
2022/09/15 01:52:00;;;;;;;16.17;3.60;;;12.00;99.90;;;;;;6115739;23;20032;-89
2022/09/15 01:54:31;;;;;;;9.27;4.03;;;11.90;99.90;;;;;;6115549;23;20002;-87
2022/09/15 01:56:57;;;;;;;14.77;3.70;;;11.90;99.90;;;;;;6115213;23;20006;-87
2022/09/15 01:59:22;;;;;;;12.23;3.10;;;11.90;99.90;;;;;;6117781;23;20124;-87
2022/09/15 02:02:04;;;;;;;8.15;2.83;;;11.90;99.90;;;;;;6116435;23;20002;-87
2022/09/15 02:04:40;;;;;;;11.85;2.53;;;11.80;99.90;;;;;;6117822;23;20030;-87
2022/09/15 02:07:19;;;;;;;6.78;3.00;;;11.80;99.90;;;;;;6116921;23;20485;-87
2022/09/15 02:10:01;;;;;;;5.78;2.97;;;11.70;99.90;;;;;;6117286;23;20431;-88
2022/09/15 02:12:36;;;;;;;7.68;2.85;;;11.70;99.90;;;;;;6116534;23;20006;-87
2022/09/15 02:15:13;;;;;;;6.60;2.58;;;11.70;99.90;;;;;;6118913;23;20002;-87
2022/09/15 02:17:46;;;;;;;5.88;3.13;;;11.70;99.90;;;;;;6116832;23;20324;-87
2022/09/15 02:20:37;;;;;;;9.55;2.50;;;11.60;99.90;;;;;;6119745;23;20052;-88
2022/09/15 02:23:12;;;;;;;4.10;2.35;;;11.60;99.90;;;;;;6116799;23;20315;-86
2022/09/15 02:25:46;;;;;;;9.23;2.78;;;11.60;99.90;;;;;;6118898;23;20112;-87
2022/09/15 02:28:20;;;;;;;4.20;2.78;;;11.60;99.90;;;;;;6118218;23;20002;-83
2022/09/15 02:30:48;;;;;;;4.40;2.60;;;11.50;99.90;;;;;;6117002;23;20017;-87
2022/09/15 02:33:18;;;;;;;7.47;3.10;;;11.60;99.90;;;;;;6117958;23;20127;-85
2022/09/15 02:35:46;;;;;;;4.85;2.33;;;11.60;99.90;;;;;;6117285;23;20009;-86
2022/09/15 02:38:13;;;;;;;2.63;2.30;;;11.60;99.90;;;;;;6118025;23;20002;-87
2022/09/15 02:40:41;;;;;;;7.70;2.75;;;11.60;99.90;;;;;;6119770;23;20002;-87
2022/09/15 02:43:16;;;;;;;9.18;3.13;;;11.70;99.90;;;;;;6116814;23;20477;-86
2022/09/15 02:45:42;;;;;;;6.45;3.00;;;11.70;99.90;;;;;;6118416;23;20379;-88
2022/09/15 02:48:08;;;;;;;8.05;3.33;;;11.70;99.90;;;;;;6117825;23;20006;-86
2022/09/15 02:50:35;;;;;;;6.82;3.38;;;11.70;99.90;;;;;;6118338;23;20089;-88
2022/09/15 02:53:01;;;;;;;5.30;3.17;;;11.70;99.90;;;;;;6116682;23;20093;-87
2022/09/15 02:55:27;;;;;;;7.88;3.55;;;11.70;99.90;;;;;;6117077;23;20006;-84
2022/09/15 02:57:56;;;;;;;8.73;3.55;;;11.70;99.90;;;;;;6117249;23;20076;-87
2022/09/15 03:00:22;;;;;;;12.77;4.18;;;11.80;99.90;;;;;;6116322;23;20459;-86
2022/09/15 03:02:50;;;;;;;6.50;3.58;;;11.80;99.90;;;;;;6116806;23;20002;-87
2022/09/15 03:05:19;;;;;;;9.90;4.00;;;11.80;99.90;;;;;;6118795;23;20056;-88
2022/09/15 03:07:45;;;;;;;14.75;5.65;;;11.80;99.90;;;;;;6092240;23;19998;-89
2022/09/15 03:10:15;;;;;;;6.65;3.60;;;11.90;99.90;;;;;;6116958;23;20073;-84
2022/09/15 03:12:48;;;;;;;7.30;3.95;;;11.80;99.90;;;;;;6118436;23;20262;-87
2022/09/15 03:15:17;;;;;;;8.10;4.53;;;11.80;99.90;;;;;;6116449;23;20006;-81
2022/09/15 03:17:44;;;;;;;13.10;4.68;;;11.80;99.90;;;;;;6117494;23;20002;-86
2022/09/15 03:20:21;;;;;;;8.68;5.00;;;11.80;99.90;;;;;;6118410;23;20450;-86
2022/09/15 03:22:48;;;;;;;9.75;6.30;;;11.80;99.90;;;;;;6116843;23;20002;-87
2022/09/15 03:25:14;;;;;;;9.88;5.75;;;11.90;99.90;;;;;;6115196;23;20002;-88
2022/09/15 03:27:41;;;;;;;22.42;7.50;;;11.90;99.90;;;;;;6116835;23;20278;-87
2022/09/15 03:30:10;;;;;;;20.45;7.75;;;11.90;99.90;;;;;;6117969;23;20013;-87
2022/09/15 03:32:35;;;;;;;12.05;5.95;;;12.00;99.90;;;;;;6116943;23;20042;-86
2022/09/15 03:35:01;;;;;;;12.80;5.35;;;12.10;99.90;;;;;;6117119;23;20006;-85
2022/09/15 03:37:27;;;;;;;12.52;4.80;;;12.10;99.90;;;;;;6089737;23;20309;-88
2022/09/15 03:39:53;;;;;;;9.95;4.95;;;12.10;99.90;;;;;;6118557;23;20009;-87
2022/09/15 03:42:19;;;;;;;8.30;4.55;;;12.10;99.90;;;;;;6116968;23;20005;-83
2022/09/15 03:44:44;;;;;;;9.73;4.05;;;12.10;99.90;;;;;;6116886;23;20045;-85
2022/09/15 03:47:10;;;;;;;10.45;4.10;;;12.10;99.90;;;;;;6116622;23;20002;-86
2022/09/15 03:49:35;;;;;;;8.20;4.32;;;12.10;99.90;;;;;;6119586;23;20006;-87
2022/09/15 03:52:01;;;;;;;9.93;3.78;;;12.10;99.90;;;;;;6118299;23;20006;-85
2022/09/15 03:54:27;;;;;;;13.90;5.65;;;12.00;99.90;;;;;;6115737;23;20029;-90
2022/09/15 03:56:53;;;;;;;10.40;4.45;;;12.00;99.90;;;;;;6115551;23;20078;-86
2022/09/15 03:59:19;;;;;;;8.48;4.63;;;12.00;99.90;;;;;;6118377;23;20013;-87
2022/09/15 04:01:46;;;;;;;5.68;4.22;;;12.00;99.90;;;;;;6116060;23;20010;-88
2022/09/15 04:04:16;;;;;;;7.78;4.95;;;12.00;99.90;;;;;;6116907;23;20002;-86
2022/09/15 04:06:41;;;;;;;9.27;4.88;;;11.90;99.90;;;;;;6118169;23;19998;-88
2022/09/15 04:09:07;;;;;;;22.08;5.70;;;11.90;99.90;;;;;;6117213;23;20006;-88
2022/09/15 04:11:33;;;;;;;7.38;4.53;;;11.90;99.90;;;;;;6117822;23;20010;-86
2022/09/15 04:13:58;;;;;;;18.17;5.78;;;11.90;99.90;;;;;;6118041;23;20030;-88
2022/09/15 04:16:28;;;;;;;12.00;4.70;;;11.90;99.90;;;;;;6114477;23;20002;-88
2022/09/15 04:18:55;;;;;;;7.97;4.28;;;11.90;99.90;;;;;;6117332;23;20048;-87
2022/09/15 04:21:23;;;;;;;9.30;5.30;;;11.80;99.90;;;;;;6116778;23;19998;-87
2022/09/15 04:23:49;;;;;;;7.18;4.28;;;11.80;99.90;;;;;;6119366;23;20051;-88
2022/09/15 04:26:23;;;;;;;7.18;4.15;;;11.80;99.90;;;;;;6118358;23;20379;-88
2022/09/15 04:28:48;;;;;;;5.88;4.05;;;11.80;99.90;;;;;;6119729;23;20281;-87
2022/09/15 04:31:15;;;;;;;4.47;3.80;;;11.80;99.90;;;;;;6117989;23;20024;-87
2022/09/15 04:33:43;;;;;;;14.60;5.88;;;11.80;99.90;;;;;;6119595;23;19998;-86
2022/09/15 04:36:15;;;;;;;7.00;4.43;;;11.80;99.90;;;;;;6119763;23;20081;-86
2022/09/15 04:38:41;;;;;;;9.93;4.15;;;11.80;99.90;;;;;;6119976;23;20085;-88
2022/09/15 04:41:07;;;;;;;5.15;3.97;;;11.70;99.90;;;;;;6119926;23;20010;-86
2022/09/15 04:43:33;;;;;;;13.85;5.18;;;11.70;99.90;;;;;;6118745;23;20018;-87
2022/09/15 04:45:59;;;;;;;9.48;4.30;;;11.70;99.90;;;;;;6116740;23;20009;-88
2022/09/15 04:48:25;;;;;;;12.15;6.05;;;11.60;99.90;;;;;;6114062;23;20002;-88
2022/09/15 04:50:51;;;;;;;11.57;4.82;;;11.60;99.90;;;;;;6113875;23;20013;-85
2022/09/15 04:53:20;;;;;;;16.63;4.50;;;11.60;99.90;;;;;;6113560;23;20006;-88
2022/09/15 04:55:45;;;;;;;11.32;4.82;;;11.60;99.90;;;;;;6116805;23;20013;-88
2022/09/15 04:58:11;;;;;;;11.00;4.28;;;11.60;99.90;;;;;;6116222;23;20002;-87
2022/09/15 05:00:43;;;;;;;11.95;4.60;;;11.50;99.90;;;;;;6118530;23;20350;-86
2022/09/15 05:03:09;;;;;;;12.55;4.10;;;11.60;99.90;;;;;;6117069;23;20005;-87
2022/09/15 05:05:35;;;;;;;7.22;4.03;;;11.60;99.90;;;;;;6119171;23;20002;-87
2022/09/15 05:08:01;;;;;;;8.77;4.13;;;11.50;99.90;;;;;;6118502;23;20033;-90
2022/09/15 05:10:27;;;;;;;9.57;4.50;;;11.50;99.90;;;;;;6119139;23;20017;-88
2022/09/15 05:12:53;;;;;;;14.15;4.95;;;11.50;99.90;;;;;;6118615;23;20374;-89
2022/09/15 05:15:23;;;;;;;14.13;4.75;;;11.60;99.90;;;;;;6118924;23;20085;-84
2022/09/15 05:17:48;;;;;;;7.78;4.00;;;11.60;99.90;;;;;;6092366;23;19998;-91
2022/09/15 05:20:19;;;;;;;23.08;4.85;;;11.70;99.90;;;;;;6118774;23;20032;-90
2022/09/15 05:22:45;;;;;;;9.48;4.22;;;11.80;99.90;;;;;;6118458;23;20006;-89
2022/09/15 05:25:17;;;;;;;12.35;4.60;;;11.90;99.90;;;;;;6119372;23;20007;-88
2022/09/15 05:27:42;;;;;;;16.73;4.70;;;12.10;99.90;;;;;;6116952;23;20431;-87
2022/09/15 05:30:08;;;;;;;16.48;4.68;;;12.10;99.90;;;;;;6118542;23;20013;-89
2022/09/15 05:32:34;;;;;;;12.13;4.30;;;12.20;99.90;;;;;;6118018;23;20593;-86
2022/09/15 05:34:59;;;;;;;17.15;4.93;;;12.40;99.90;;;;;;6118860;23;20033;-90
2022/09/15 05:37:25;;;;;;;10.38;4.18;;;12.40;99.90;;;;;;6117711;23;20072;-89
2022/09/15 05:39:50;;;;;;;14.77;4.05;;;12.50;99.90;;;;;;6120637;23;20343;-87
2022/09/15 05:42:16;;;;;;;7.28;3.35;;;12.50;99.90;;;;;;6119729;23;20013;-86
2022/09/15 05:44:42;;;;;;;8.65;3.55;;;12.50;99.90;;;;;;6119141;23;20025;-87
2022/09/15 05:47:07;;;;;;;14.20;4.07;;;12.50;99.90;;;;;;6116057;23;20009;-87
2022/09/15 05:49:33;;;;;;;12.65;4.28;;;12.50;99.90;;;;;;6118636;23;20313;-88
2022/09/15 05:51:59;;;;;;;12.05;4.45;;;12.50;99.90;;;;;;6119101;23;20002;-90
2022/09/15 05:54:26;;;;;;;13.68;4.15;;;12.50;99.90;;;;;;6117945;23;20041;-89
2022/09/15 05:56:51;;;;;;;8.88;3.22;;;12.50;99.90;;;;;;6119739;23;19998;-86
2022/09/15 05:59:20;;;;;;;9.43;3.97;;;12.50;99.90;;;;;;6120449;23;20002;-89
2022/09/15 06:01:45;;;;;;;15.18;4.57;;;12.50;99.90;;;;;;6119203;23;20002;-89
2022/09/15 06:04:11;;;;;;;19.70;5.55;;;12.60;99.90;;;;;;6119988;23;20340;-89
2022/09/15 06:06:36;;;;;;;12.00;4.15;;;12.60;99.90;;;;;;6119198;23;20032;-88
2022/09/15 06:09:05;;;;;;;11.68;3.85;;;12.60;99.90;;;;;;6120563;23;20002;-89
2022/09/15 06:11:32;;;;;;;11.50;4.05;;;12.70;99.90;;;;;;6119534;23;20033;-87
2022/09/15 06:13:59;;;;;;;9.32;4.63;;;12.90;99.90;;;;;;6120324;23;20089;-90
2022/09/15 06:16:25;;;;;;;17.92;6.28;;;13.00;99.90;;;;;;6120204;23;20435;-88
2022/09/15 06:18:52;;;;;;;11.70;4.03;;;13.10;99.90;;;;;;6119332;23;20081;-84
2022/09/15 06:21:23;;;;;;;22.08;4.68;;;13.20;99.90;;;;;;6120059;23;19998;-86
2022/09/15 06:23:57;;;;;;;9.35;4.68;;;13.20;99.90;;;;;;6119419;23;20055;-86
2022/09/15 06:26:24;;;;;;;13.30;5.45;;;13.20;99.90;;;;;;6120155;23;20301;-87
2022/09/15 06:28:55;;;;;;;12.75;4.75;;;13.20;99.90;;;;;;6119031;23;20005;-86
2022/09/15 06:31:21;;;;;;;7.28;3.42;;;13.30;99.90;;;;;;6120269;23;20010;-89
2022/09/15 06:33:52;;;;;;;7.55;3.15;;;13.30;99.90;;;;;;6119214;23;20051;-88
2022/09/15 06:36:26;;;;;;;16.25;4.13;;;13.40;99.90;;;;;;6119841;23;20069;-89
2022/09/15 06:38:52;;;;;;;11.60;3.40;;;13.40;99.90;;;;;;6119178;23;20002;-86
2022/09/15 06:41:24;;;;;;;15.82;3.75;;;13.50;99.90;;;;;;6119817;23;20391;-86
2022/09/15 06:43:49;;;;;;;11.00;3.00;;;13.50;99.90;;;;;;6119185;23;20018;-89
2022/09/15 06:46:24;;;;;;;5.57;2.85;;;13.50;99.90;;;;;;6120138;23;20012;-88
2022/09/15 06:48:50;;;;;;;8.02;3.20;;;13.50;99.90;;;;;;6093374;23;20051;-86
2022/09/15 06:51:24;;;;;;;13.50;4.85;;;13.50;99.90;;;;;;6119761;23;20006;-87
2022/09/15 06:53:52;;;;;;;6.10;3.00;;;13.60;99.90;;;;;;6119324;23;20016;-86
2022/09/15 06:56:22;;;;;;;15.15;3.75;;;13.60;99.90;;;;;;6120300;23;20009;-87
2022/09/15 06:58:48;;;;;;;13.13;3.25;;;13.70;99.90;;;;;;6119107;23;19998;-87
2022/09/15 07:01:28;;;;;;;9.77;3.13;;;13.70;99.90;;;;;;6120060;23;20010;-89
2022/09/15 07:03:56;;;;;;;9.23;3.10;;;13.70;99.90;;;;;;6119585;23;20022;-85
2022/09/15 07:06:22;;;;;;;12.77;3.05;;;13.70;99.90;;;;;;6119636;23;20489;-87
2022/09/15 07:08:48;;;;;;;5.75;2.95;;;13.80;99.90;;;;;;6119243;23;20010;-87
2022/09/15 07:11:17;;;;;;;4.65;2.13;;;13.90;99.90;;;;;;6120160;23;20013;-86
2022/09/15 07:13:43;;;;;;;10.43;2.80;;;14.00;99.90;;;;;;6119508;23;20029;-88
2022/09/15 07:16:11;;;;;;;6.55;2.35;;;14.00;99.90;;;;;;6120056;23;20407;-88
2022/09/15 07:18:37;;;;;;;8.18;3.28;;;14.10;99.90;;;;;;6118968;23;20323;-89
2022/09/15 07:21:05;;;;;;;9.43;3.15;;;14.10;99.90;;;;;;6119873;23;20089;-89
2022/09/15 07:23:35;;;;;;;5.53;3.20;;;14.10;99.90;;;;;;6118795;23;20005;-89
2022/09/15 07:26:21;;;;;;;8.07;3.53;;;14.20;99.90;;;;;;6119872;23;20004;-88
2022/09/15 07:28:58;;;;;;;9.15;3.70;;;14.30;99.90;;;;;;6118736;23;20335;-88
2022/09/15 07:31:26;;;;;;;9.35;3.90;;;14.30;99.90;;;;;;6120037;23;20017;-87
2022/09/15 07:33:52;;;;;;;8.93;3.50;;;14.40;99.90;;;;;;6119190;23;20450;-86
2022/09/15 07:36:24;;;;;;;10.25;3.88;;;14.40;99.90;;;;;;6120171;23;20002;-86
2022/09/15 07:38:50;;;;;;;7.78;2.50;;;14.40;99.90;;;;;;6119145;23;20006;-87
2022/09/15 07:41:27;;;;;;;6.25;2.70;;;14.50;99.90;;;;;;6120255;23;20466;-88
2022/09/15 07:43:55;;;;;;;5.53;3.05;;;14.60;99.90;;;;;;6118862;23;20026;-88
2022/09/15 07:46:25;;;;;;;10.90;2.97;;;14.70;99.90;;;;;;6120166;23;20435;-90
2022/09/15 07:48:55;;;;;;;13.00;3.25;;;14.80;99.90;;;;;;6118937;23;20002;-86
2022/09/15 07:51:26;;;;;;;22.20;3.72;;;14.90;99.90;;;;;;6120271;23;20006;-85
2022/09/15 07:53:52;;;;;;;8.68;2.33;;;14.90;99.90;;;;;;6117421;23;20323;-88
2022/09/15 07:56:32;;;;;;;5.28;2.28;;;14.90;99.90;;;;;;6115351;23;20006;-87
2022/09/15 07:58:57;;;;;;;6.43;2.00;;;14.90;99.90;;;;;;6117945;23;20002;-89
2022/09/15 08:01:23;;;;;;;5.65;2.00;;;14.90;99.90;;;;;;6119096;23;20010;-89
2022/09/15 08:03:50;;;;;;;4.68;1.80;;;14.80;99.90;;;;;;6093566;23;20006;-88
2022/09/15 08:06:24;;;;;;;4.90;1.77;;;14.80;99.90;;;;;;6119890;23;20009;-88
2022/09/15 08:08:50;;;;;;;13.30;2.03;;;14.80;99.90;;;;;;6118950;23;20010;-86
2022/09/15 08:11:25;;;;;;;15.40;2.40;;;14.80;99.90;;;;;;6119859;23;20002;-88
2022/09/15 08:13:51;;;;;;;8.93;2.88;;;14.80;99.90;;;;;;6118821;23;20398;-87
2022/09/15 08:16:19;;;;;;;10.48;1.88;;;14.70;99.90;;;;;;6119862;23;20002;-88
2022/09/15 08:18:46;;;;;;;9.68;2.30;;;14.70;99.90;;;;;;6118690;23;20409;-89
2022/09/15 08:21:21;;;;;;;8.35;2.17;;;14.70;99.90;;;;;;6120000;23;20005;-87
2022/09/15 08:23:51;;;;;;;17.15;3.22;;;14.70;99.90;;;;;;6119278;23;20078;-88
2022/09/15 08:26:24;;;;;;;10.57;1.98;;;14.70;99.90;;;;;;6119926;23;20005;-87
2022/09/15 08:28:49;;;;;;;7.03;2.40;;;14.60;99.90;;;;;;6118805;23;20013;-86
2022/09/15 08:31:16;;;;;;;20.33;3.85;;;14.60;99.90;;;;;;6119465;23;20002;-88
2022/09/15 08:33:45;;;;;;;11.27;2.53;;;14.60;99.90;;;;;;6118769;23;20010;-89
2022/09/15 08:36:12;;;;;;;9.10;1.65;;;14.50;99.90;;;;;;6119431;23;20005;-88
2022/09/15 08:38:39;;;;;;;9.55;2.22;;;14.60;99.90;;;;;;6118762;23;20002;-89
2022/09/15 08:41:28;;;;;;;10.25;2.20;;;14.50;99.90;;;;;;6119705;23;20073;-86
2022/09/15 08:43:59;;;;;;;8.60;1.90;;;14.60;99.90;;;;;;6118505;23;20085;-89
2022/09/15 08:46:35;;;;;;;11.85;1.80;;;14.60;99.90;;;;;;6119409;23;20006;-88
2022/09/15 08:49:36;;;;;;;8.25;1.85;;;14.50;99.90;;;;;;6118597;23;20077;-88
2022/09/15 08:52:09;;;;;;;7.60;2.33;;;14.50;99.90;;;;;;6125790;23;20056;-82
2022/09/15 08:54:34;;;;;;;5.72;2.10;;;14.60;99.90;;;;;;6119321;23;20013;-87
2022/09/15 08:57:02;;;;;;;11.13;2.15;;;14.50;99.90;;;;;;6119839;23;20002;-88
2022/09/15 08:59:32;;;;;;;13.73;2.28;;;14.60;99.90;;;;;;6114499;23;20025;-86
2022/09/15 09:02:34;;;;;;;6.35;1.63;;;14.60;99.90;;;;;;6092833;23;20301;-87
2022/09/15 09:05:28;;;;;;;7.40;1.98;;;14.70;99.90;;;;;;6117260;23;20006;-88
2022/09/15 09:08:09;;;;;;;9.52;1.42;;;14.70;99.90;;;;;;6113359;23;20068;-86
2022/09/15 09:10:45;;;;;;;5.47;1.90;;;14.70;99.90;;;;;;6116567;23;20013;-85
2022/09/15 09:13:37;;;;;;;7.78;2.00;;;14.80;99.90;;;;;;6116809;23;20427;-88
2022/09/15 09:16:32;;;;;;;5.85;1.45;;;14.80;99.90;;;;;;6118165;23;20012;-86
2022/09/15 09:19:44;;;;;;;8.90;2.08;;;14.90;99.90;;;;;;6114487;23;20005;-84
2022/09/15 09:22:15;;;;;;;10.05;1.90;;;14.90;99.90;;;;;;6117881;23;20002;-88
2022/09/15 09:24:50;;;;;;;10.55;1.50;;;14.90;99.90;;;;;;6117446;23;20014;-88
2022/09/15 09:27:20;;;;;;;9.70;2.65;;;14.90;99.90;;;;;;6117334;23;20008;-86
2022/09/15 09:29:48;;;;;;;8.38;1.92;;;14.90;99.90;;;;;;6114807;23;20006;-86
2022/09/15 09:32:23;;;;;;;12.35;2.05;;;14.90;99.90;;;;;;6116923;23;20010;-88
2022/09/15 09:35:01;;;;;;;8.77;2.70;;;15.00;99.90;;;;;;6093055;23;20006;-85
2022/09/15 09:37:27;;;;;;;9.02;2.35;;;14.90;99.90;;;;;;6116984;23;20498;-88
2022/09/15 09:39:52;;;;;;;4.15;1.80;;;14.90;99.90;;;;;;6118864;23;20002;-89
2022/09/15 09:42:19;;;;;;;6.20;2.10;;;14.90;99.90;;;;;;6117470;23;20316;-89
2022/09/15 09:44:45;;;;;;;12.23;2.65;;;14.90;99.90;;;;;;6116685;23;20322;-85
2022/09/15 09:47:12;;;;;;;11.68;2.75;;;14.90;99.90;;;;;;6117567;23;20060;-87
2022/09/15 09:49:45;;;;;;;10.43;2.17;;;15.00;99.90;;;;;;6116373;23;20024;-88
2022/09/15 09:52:11;;;;;;;10.80;2.20;;;15.10;99.90;;;;;;6117938;23;20010;-87
2022/09/15 09:54:37;;;;;;;8.75;2.53;;;15.10;99.90;;;;;;6116631;23;20017;-85
2022/09/15 09:57:36;;;;;;;7.57;2.17;;;15.10;99.90;;;;;;6117115;23;20002;-87
2022/09/15 10:00:03;;;;;;;8.32;2.13;;;15.20;99.90;;;;;;6115389;23;20088;-88
2022/09/15 10:02:44;;;;;;;17.58;2.92;;;15.30;99.90;;;;;;6114866;23;20070;-88
2022/09/15 10:05:10;;;;;;;8.75;1.83;;;15.30;99.90;;;;;;6116730;23;19998;-88
2022/09/15 10:07:42;;;;;;;10.77;2.25;;;15.40;99.90;;;;;;6116352;23;20423;-87
2022/09/15 10:10:21;;;;;;;8.35;2.17;;;15.30;99.90;;;;;;6118509;23;20104;-89
2022/09/15 10:12:49;;;;;;;6.13;1.88;;;15.40;99.90;;;;;;6116307;23;20006;-88
2022/09/15 10:15:30;;;;;;;5.30;1.77;;;15.40;99.90;;;;;;6118146;23;20006;-86
2022/09/15 10:17:57;;;;;;;9.65;2.60;;;15.50;99.90;;;;;;6115717;23;20010;-89
2022/09/15 10:20:45;;;;;;;8.23;1.92;;;15.50;99.90;;;;;;6114657;23;20002;-87
2022/09/15 10:23:20;;;;;;;6.40;1.63;;;15.50;99.90;;;;;;6114948;23;20047;-87
2022/09/15 10:25:46;;;;;;;9.32;2.03;;;15.60;99.90;;;;;;6117672;23;19998;-88
2022/09/15 10:28:15;;;;;;;4.57;1.90;;;15.60;99.90;;;;;;6117740;23;20002;-88
2022/09/15 10:31:01;;;;;;;4.07;1.13;;;15.60;99.90;;;;;;6119718;23;20014;-89
2022/09/15 10:33:31;;;;;;;;;;;15.60;99.90;;;;;;6119650;23;20017;-86
2022/09/15 10:36:11;;;;;;;7.95;1.40;;;15.70;99.90;;;;;;6119895;23;19912;-90
2022/09/15 10:38:46;;;;;;;8.00;1.67;;;15.60;99.90;;;;;;6118635;23;20010;-86
2022/09/15 10:41:30;;;;;;;11.18;1.67;;;15.60;99.90;;;;;;6120106;23;20009;-87
2022/09/15 10:44:12;;;;;;;2.72;1.08;;;15.60;99.90;;;;;;6118891;23;20014;-90
2022/09/15 10:46:59;;;;;;;4.25;1.20;;;15.60;99.90;;;;;;6120062;23;20093;-89
2022/09/15 10:49:42;;;;;;;6.55;1.50;;;15.50;99.90;;;;;;6118912;23;20016;-87
2022/09/15 10:52:14;;;;;;;4.90;1.65;;;15.60;99.90;;;;;;6119998;23;20316;-88
2022/09/15 10:54:58;;;;;;;6.40;1.55;;;15.60;99.90;;;;;;6118748;23;20514;-87
2022/09/15 10:57:35;;;;;;;3.28;1.23;;;15.50;99.90;;;;;;6120040;23;19998;-87
2022/09/15 11:00:09;;;;;;;10.10;2.15;;;15.50;99.90;;;;;;6120149;23;20002;-87
2022/09/15 11:02:47;;;;;;;7.72;1.63;;;15.50;99.90;;;;;;6119214;23;20424;-86
2022/09/15 11:05:28;;;;;;;6.18;1.60;;;15.50;99.90;;;;;;6119771;23;20018;-89
2022/09/15 11:08:32;;;;;;;9.00;1.33;;;15.50;99.90;;;;;;6119023;23;20002;-86
2022/09/15 11:11:21;;;;;;;4.82;1.10;;;15.50;99.90;;;;;;6120129;23;20080;-89
2022/09/15 11:14:06;;;;;;;7.78;1.55;;;15.50;99.90;;;;;;6119372;23;20010;-88
2022/09/15 11:16:47;;;;;;;5.43;1.38;;;15.50;99.90;;;;;;6120639;23;20028;-87
2022/09/15 11:19:46;;;;;;;5.18;1.40;;;15.50;99.90;;;;;;6119029;23;20036;-88
2022/09/15 11:22:17;;;;;;;7.20;1.70;;;15.50;99.90;;;;;;6119771;23;20009;-89
2022/09/15 11:24:56;;;;;;;9.95;1.65;;;15.60;99.90;;;;;;6119056;23;19998;-90
2022/09/15 11:27:43;;;;;;;9.13;1.55;;;15.60;99.90;;;;;;6119335;23;20002;-87
2022/09/15 11:30:16;;;;;;;10.70;1.75;;;15.50;99.90;;;;;;6116227;23;20339;-86
2022/09/15 11:32:55;;;;;;;6.10;1.88;;;15.60;99.90;;;;;;6117741;23;20073;-84
2022/09/15 11:35:34;;;;;;;9.32;1.88;;;15.60;99.90;;;;;;6118513;23;20005;-86
2022/09/15 11:38:28;;;;;;;8.65;2.50;;;15.60;99.90;;;;;;6119062;23;20029;-88
2022/09/15 11:41:13;;;;;;;9.40;1.50;;;15.60;99.90;;;;;;6119745;23;20002;-89
2022/09/15 11:43:46;;;;;;;7.50;1.55;;;15.60;99.90;;;;;;6118033;23;20026;-90
2022/09/15 11:46:22;;;;;;;7.03;1.95;;;15.70;99.90;;;;;;6119501;23;20002;-89
2022/09/15 11:49:21;;;;;;;6.47;1.58;;;15.60;99.90;;;;;;6115999;23;20002;-89
2022/09/15 11:51:57;;;;;;;6.70;1.55;;;15.70;99.90;;;;;;6145839;23;20032;-86
2022/09/15 11:54:39;;;;;;;7.93;1.73;;;15.70;99.90;;;;;;6117858;23;20097;-82
2022/09/15 11:57:11;;;;;;;5.80;2.33;;;15.70;99.90;;;;;;6118876;23;20063;-89
2022/09/15 12:00:13;;;;;;;5.07;1.48;;;15.80;99.90;;;;;;6117772;23;20010;-84
2022/09/15 12:03:16;;;;;;;3.72;1.30;;;15.80;99.90;;;;;;6125900;23;20073;-89
2022/09/15 12:05:53;;;;;;;6.45;1.40;;;15.70;99.90;;;;;;6128149;23;20014;-90
2022/09/15 12:08:48;;;;;;;8.88;2.20;;;15.70;99.90;;;;;;6119017;23;19998;-88
2022/09/15 12:11:35;;;;;;;6.32;1.48;;;15.70;99.90;;;;;;6119945;23;20378;-88
2022/09/15 12:14:05;;;;;;;8.35;2.28;;;15.70;99.90;;;;;;6117751;23;20324;-89
2022/09/15 12:16:33;;;;;;;9.68;2.05;;;15.70;99.90;;;;;;6118043;23;20447;-87
2022/09/15 12:19:32;;;;;;;7.25;1.73;;;15.70;99.90;;;;;;6118596;23;20014;-88
2022/09/15 12:22:25;;;;;;;10.45;1.80;;;15.80;99.90;;;;;;6118689;23;20002;-87
2022/09/15 12:25:12;;;;;;;7.07;1.80;;;15.70;99.90;;;;;;6113030;23;20093;-83
2022/09/15 12:27:38;;;;;;;7.57;1.70;;;15.70;99.90;;;;;;6090629;23;20006;-85
2022/09/15 12:30:04;;;;;;;3.75;1.42;;;15.70;99.90;;;;;;6114817;23;20431;-86
2022/09/15 12:32:33;;;;;;;6.78;1.52;;;15.80;99.90;;;;;;6116656;23;20002;-88
2022/09/15 12:35:05;;;;;;;7.95;1.85;;;15.80;99.90;;;;;;6092340;23;20017;-87
2022/09/15 12:37:45;;;;;;;5.22;1.45;;;15.80;99.90;;;;;;6119007;23;20002;-89
2022/09/15 12:40:32;;;;;;;7.68;1.52;;;15.80;99.90;;;;;;6118921;23;20025;-90
2022/09/15 12:43:12;;;;;;;6.95;1.88;;;15.90;99.90;;;;;;6119113;23;20005;-90
2022/09/15 12:45:40;;;;;;;5.07;1.65;;;15.90;99.90;;;;;;6119181;23;20018;-82
2022/09/15 12:48:10;;;;;;;5.68;1.70;;;15.90;99.90;;;;;;6117689;23;20431;-85
2022/09/15 12:50:52;;;;;;;4.30;1.35;;;15.90;99.90;;;;;;6118150;23;20006;-88
2022/09/15 12:53:24;;;;;;;7.28;1.30;;;16.00;99.90;;;;;;6118478;23;20386;-90
2022/09/15 12:55:55;;;;;;;4.72;1.80;;;16.10;99.90;;;;;;6118473;23;20008;-85
2022/09/15 12:58:32;;;;;;;3.33;1.25;;;16.30;99.90;;;;;;6092553;23;20358;-87
2022/09/15 13:01:16;;;;;;;6.07;1.10;;;16.60;99.90;;;;;;6118664;23;20016;-89
2022/09/15 13:03:42;;;;;;;8.45;1.67;;;16.70;99.90;;;;;;6118916;23;20005;-84
2022/09/15 13:06:22;;;;;;;6.75;1.35;;;16.80;99.90;;;;;;6119257;23;20315;-90
2022/09/15 13:09:04;;;;;;;12.88;1.65;;;16.80;99.90;;;;;;6118555;23;20006;-90